Time;durP1;ratioP1;P1;durP2;ratioP2;P2;SDS_P1;SDS_P2;PMS_P1;PMS_P2;Temp;Humidity;BMP_temperature;BMP_pressure;BME280_temperature;BME280_humidity;BME280_pressure;Samples;Min_cycle;Max_cycle;Signal;HPM_P1;HPM_P2
2023/12/04 00:01:32;;;;;;;13.63;6.70;;;1.20;99.90;;;;;;5074466;28;20730;-70
2023/12/04 00:03:57;;;;;;;13.17;7.43;;;1.20;99.90;;;;;;5074372;28;20174;-69
2023/12/04 00:06:23;;;;;;;10.43;6.47;;;1.20;99.90;;;;;;5074246;28;20173;-69
2023/12/04 00:08:49;;;;;;;10.17;6.50;;;1.20;99.90;;;;;;5074242;28;20400;-69
2023/12/04 00:11:15;;;;;;;11.10;7.40;;;1.30;99.90;;;;;;5073041;28;20734;-70
2023/12/04 00:13:40;;;;;;;9.20;5.90;;;1.30;99.90;;;;;;5074415;28;20166;-70
2023/12/04 00:16:06;;;;;;;14.10;6.77;;;1.30;99.90;;;;;;5073070;28;20170;-69
2023/12/04 00:18:32;;;;;;;12.63;7.90;;;1.30;99.90;;;;;;5073904;28;20190;-70
2023/12/04 00:20:57;;;;;;;7.87;5.50;;;1.30;99.90;;;;;;5074089;28;20424;-69
2023/12/04 00:23:23;;;;;;;12.97;7.10;;;1.30;99.90;;;;;;5074213;28;20159;-69
2023/12/04 00:25:48;;;;;;;13.47;6.70;;;1.30;99.90;;;;;;5074320;28;20166;-70
2023/12/04 00:28:14;;;;;;;13.57;7.30;;;1.30;99.90;;;;;;5074037;28;20244;-70
2023/12/04 00:30:40;;;;;;;9.80;6.13;;;1.30;99.90;;;;;;5072796;28;20278;-70
2023/12/04 00:33:05;;;;;;;11.70;7.00;;;1.20;99.90;;;;;;5073993;28;20652;-69
2023/12/04 00:35:31;;;;;;;14.73;7.53;;;1.20;99.90;;;;;;5073958;28;20548;-71
2023/12/04 00:37:56;;;;;;;16.90;8.10;;;1.20;99.90;;;;;;5073795;28;20198;-70
2023/12/04 00:40:22;;;;;;;11.03;7.40;;;1.20;99.90;;;;;;5073901;28;20193;-70
2023/12/04 00:42:47;;;;;;;12.03;6.60;;;1.20;99.90;;;;;;5073742;28;20171;-70
2023/12/04 00:45:13;;;;;;;11.27;6.40;;;1.10;99.90;;;;;;5073846;28;20162;-70
2023/12/04 00:47:38;;;;;;;8.00;4.93;;;1.10;99.90;;;;;;5073606;28;20171;-70
2023/12/04 00:50:04;;;;;;;8.13;5.90;;;1.10;99.90;;;;;;5073638;28;20190;-70
2023/12/04 00:52:30;;;;;;;10.30;7.00;;;1.00;99.90;;;;;;5072295;28;20188;-69
2023/12/04 00:54:55;;;;;;;13.17;7.13;;;1.00;99.90;;;;;;5073541;28;20515;-70
2023/12/04 00:57:21;;;;;;;10.27;6.67;;;1.00;99.90;;;;;;5073345;28;20178;-70
2023/12/04 00:59:46;;;;;;;9.10;6.37;;;1.00;99.90;;;;;;5073529;28;20193;-70
2023/12/04 01:02:12;;;;;;;8.00;5.90;;;0.90;99.90;;;;;;5073401;28;20304;-69
2023/12/04 01:04:41;;;;;;;9.67;6.30;;;0.90;99.90;;;;;;5073430;28;20177;-70
2023/12/04 01:07:06;;;;;;;11.23;7.73;;;0.90;99.90;;;;;;5073188;28;20186;-70
2023/12/04 01:09:35;;;;;;;7.07;4.87;;;0.90;99.90;;;;;;5073383;28;20510;-69
2023/12/04 01:12:00;;;;;;;7.93;5.07;;;0.90;99.90;;;;;;5073165;28;20194;-70
2023/12/04 01:14:26;;;;;;;8.30;5.57;;;0.90;99.90;;;;;;5073172;28;20878;-69
2023/12/04 01:16:52;;;;;;;11.60;7.20;;;0.90;99.90;;;;;;5072911;28;20692;-70
2023/12/04 01:19:17;;;;;;;8.53;5.57;;;0.90;99.90;;;;;;5073106;28;20206;-70
2023/12/04 01:21:43;;;;;;;10.70;7.10;;;0.90;99.90;;;;;;5072916;28;20197;-69
2023/12/04 01:24:08;;;;;;;12.33;7.63;;;0.90;99.90;;;;;;5073072;28;20163;-70
2023/12/04 01:26:34;;;;;;;14.00;7.03;;;0.90;99.90;;;;;;5072933;28;20176;-70
2023/12/04 01:29:00;;;;;;;14.33;6.57;;;0.90;99.90;;;;;;5072719;28;20174;-69
2023/12/04 01:31:25;;;;;;;11.27;7.00;;;0.90;99.90;;;;;;5072827;28;20190;-70
2023/12/04 01:33:51;;;;;;;11.50;6.60;;;0.90;99.90;;;;;;5072916;28;20170;-69
2023/12/04 01:36:16;;;;;;;8.10;6.90;;;0.90;99.90;;;;;;5072788;28;20166;-68
2023/12/04 01:38:42;;;;;;;14.50;7.43;;;0.90;99.90;;;;;;5072551;28;20212;-70
2023/12/04 01:41:07;;;;;;;12.37;6.67;;;0.90;99.90;;;;;;5072298;28;20216;-72
2023/12/04 01:43:33;;;;;;;12.93;6.60;;;0.90;99.90;;;;;;5071382;28;20175;-70
2023/12/04 01:46:00;;;;;;;13.23;6.60;;;1.00;99.90;;;;;;5072722;28;20522;-70
2023/12/04 01:48:26;;;;;;;8.93;7.33;;;0.90;99.90;;;;;;5072495;28;20170;-70
2023/12/04 01:50:52;;;;;;;13.07;7.83;;;1.00;99.90;;;;;;5072369;28;20429;-70
2023/12/04 01:53:18;;;;;;;15.60;6.53;;;1.00;99.90;;;;;;5072377;28;20484;-69
2023/12/04 01:55:44;;;;;;;11.17;7.40;;;1.00;99.90;;;;;;5072518;28;20558;-70
2023/12/04 01:58:11;;;;;;;13.10;6.77;;;1.00;99.90;;;;;;5072211;28;20436;-70
2023/12/04 02:00:37;;;;;;;11.27;7.23;;;1.00;99.90;;;;;;5072269;28;20482;-70
2023/12/04 02:03:02;;;;;;;12.33;7.00;;;1.00;99.90;;;;;;5072188;28;20903;-70
2023/12/04 02:05:29;;;;;;;17.37;7.70;;;1.00;99.90;;;;;;5071923;28;20154;-69
2023/12/04 02:07:55;;;;;;;12.53;7.50;;;1.00;99.90;;;;;;5072109;28;20171;-69
2023/12/04 02:10:21;;;;;;;11.53;6.30;;;1.00;99.90;;;;;;5070878;28;20498;-70
2023/12/04 02:12:47;;;;;;;12.47;8.80;;;1.00;99.90;;;;;;5072153;28;20400;-69
2023/12/04 02:15:13;;;;;;;9.27;6.80;;;1.00;99.90;;;;;;5072662;28;20393;-69
2023/12/04 02:17:40;;;;;;;12.27;6.70;;;1.00;99.90;;;;;;5071747;28;20444;-70
2023/12/04 02:20:07;;;;;;;13.20;6.70;;;0.90;99.90;;;;;;5072029;28;20231;-71
2023/12/04 02:22:33;;;;;;;11.53;8.13;;;0.90;99.90;;;;;;5071951;28;20450;-70
2023/12/04 02:25:00;;;;;;;13.07;7.97;;;0.90;99.90;;;;;;5072058;28;20424;-70
2023/12/04 02:27:53;;;;;;;13.40;7.40;;;0.90;99.90;;;;;;5071866;28;20741;-70
2023/12/04 02:30:22;;;;;;;14.20;7.17;;;0.90;99.90;;;;;;5070654;28;20494;-70
2023/12/04 02:32:49;;;;;;;11.20;6.77;;;0.90;99.90;;;;;;5071790;28;20404;-70
2023/12/04 02:35:20;;;;;;;9.63;7.10;;;1.00;99.90;;;;;;5070634;28;20415;-70
2023/12/04 02:37:47;;;;;;;11.77;6.10;;;1.00;99.90;;;;;;5071625;28;20943;-69
2023/12/04 02:40:13;;;;;;;12.83;6.60;;;1.00;99.90;;;;;;5070493;28;20432;-70
2023/12/04 02:42:39;;;;;;;9.47;6.23;;;0.90;99.90;;;;;;5071767;28;20767;-70
2023/12/04 02:45:05;;;;;;;11.33;6.50;;;1.00;99.90;;;;;;5071895;28;20404;-70
2023/12/04 02:47:30;;;;;;;8.80;5.53;;;1.00;99.90;;;;;;5071680;28;20175;-70
2023/12/04 02:49:56;;;;;;;13.73;7.90;;;0.90;99.90;;;;;;5071711;28;20438;-70
2023/12/04 02:52:21;;;;;;;10.97;7.60;;;0.90;99.90;;;;;;5071607;28;20212;-71
2023/12/04 02:54:47;;;;;;;15.10;7.90;;;0.90;99.90;;;;;;5074309;28;20844;-70
2023/12/04 02:57:12;;;;;;;11.43;7.40;;;0.90;99.90;;;;;;5075637;28;20595;-70
2023/12/04 02:59:38;;;;;;;14.43;7.87;;;0.90;99.90;;;;;;5074331;28;20631;-70
2023/12/04 03:02:04;;;;;;;13.07;6.97;;;0.90;99.90;;;;;;5075600;28;20216;-71
2023/12/04 03:04:30;;;;;;;10.30;6.60;;;0.90;99.90;;;;;;5075584;28;20653;-70
2023/12/04 03:06:56;;;;;;;16.37;8.43;;;0.90;99.90;;;;;;5075481;28;20621;-71
2023/12/04 03:09:21;;;;;;;15.27;7.90;;;0.90;99.90;;;;;;5074311;28;20419;-70
2023/12/04 03:11:47;;;;;;;11.83;7.73;;;0.90;99.90;;;;;;5075298;28;20194;-70
2023/12/04 03:14:12;;;;;;;13.07;8.37;;;0.80;99.90;;;;;;5075550;28;20173;-70
2023/12/04 03:16:38;;;;;;;11.00;6.83;;;0.80;99.90;;;;;;5075352;28;20167;-70
2023/12/04 03:19:04;;;;;;;11.40;7.73;;;0.80;99.90;;;;;;5073796;28;20205;-70
2023/12/04 03:21:29;;;;;;;8.87;6.47;;;0.80;99.90;;;;;;5074105;28;20182;-70
2023/12/04 03:23:55;;;;;;;16.70;9.10;;;0.80;99.90;;;;;;5073921;28;20407;-71
2023/12/04 03:26:20;;;;;;;11.63;7.73;;;0.80;99.90;;;;;;5075408;28;20538;-70
2023/12/04 03:28:46;;;;;;;15.33;6.83;;;0.80;99.90;;;;;;5075195;28;20167;-71
2023/12/04 03:31:11;;;;;;;13.20;8.27;;;0.80;99.90;;;;;;5075018;28;20269;-71
2023/12/04 03:33:37;;;;;;;14.03;8.20;;;0.80;99.90;;;;;;5075016;28;20253;-70
2023/12/04 03:36:03;;;;;;;13.63;7.87;;;0.80;99.90;;;;;;5075174;28;20545;-70
2023/12/04 03:38:28;;;;;;;14.33;9.30;;;0.80;99.90;;;;;;5074612;28;20690;-70
2023/12/04 03:40:54;;;;;;;14.40;8.13;;;0.80;99.90;;;;;;5073521;28;20772;-70
2023/12/04 03:43:19;;;;;;;11.90;7.77;;;0.80;99.90;;;;;;5074858;28;20159;-70
2023/12/04 03:45:45;;;;;;;16.47;8.50;;;0.80;99.90;;;;;;5074744;28;20173;-71
2023/12/04 03:48:10;;;;;;;16.00;9.23;;;0.80;99.90;;;;;;5074661;28;20685;-71
2023/12/04 03:50:36;;;;;;;15.40;8.67;;;0.80;99.90;;;;;;5074667;28;20852;-70
2023/12/04 03:53:02;;;;;;;17.20;8.57;;;0.80;99.90;;;;;;5074583;28;20174;-70
2023/12/04 03:55:28;;;;;;;12.10;6.90;;;0.80;99.90;;;;;;5074682;28;20238;-71
2023/12/04 03:57:54;;;;;;;15.60;9.10;;;0.80;99.90;;;;;;5074422;28;20237;-70
2023/12/04 04:00:20;;;;;;;12.47;7.87;;;0.70;99.90;;;;;;5074537;28;20190;-70
2023/12/04 04:02:46;;;;;;;12.80;8.47;;;0.70;99.90;;;;;;5074458;28;20926;-70
2023/12/04 04:05:11;;;;;;;15.23;9.13;;;0.70;99.90;;;;;;5074330;28;20224;-70
2023/12/04 04:07:37;;;;;;;13.67;9.43;;;0.70;99.90;;;;;;5074286;28;20167;-70
2023/12/04 04:10:04;;;;;;;16.13;9.03;;;0.80;99.90;;;;;;5074341;28;20228;-70
2023/12/04 04:12:30;;;;;;;18.20;8.90;;;0.80;99.90;;;;;;5074269;28;20170;-70
2023/12/04 04:14:56;;;;;;;19.50;8.90;;;0.70;99.90;;;;;;5074336;28;20488;-70
2023/12/04 04:17:21;;;;;;;15.03;8.73;;;0.80;99.90;;;;;;5074110;28;20958;-70
2023/12/04 04:19:47;;;;;;;18.83;8.60;;;0.70;99.90;;;;;;5074165;28;20818;-70
2023/12/04 04:22:12;;;;;;;21.70;8.07;;;0.70;99.90;;;;;;5072783;28;20572;-71
2023/12/04 04:24:38;;;;;;;15.63;8.97;;;0.70;99.90;;;;;;5072995;28;20166;-70
2023/12/04 04:27:03;;;;;;;17.67;9.30;;;0.70;99.90;;;;;;5073926;28;20193;-69
2023/12/04 04:29:29;;;;;;;12.73;9.57;;;0.70;99.90;;;;;;5073925;28;20644;-71
2023/12/04 04:31:54;;;;;;;19.00;9.07;;;0.70;99.90;;;;;;5073904;28;20249;-70
2023/12/04 04:34:21;;;;;;;16.77;8.67;;;0.70;99.90;;;;;;5072670;28;20637;-70
2023/12/04 04:36:47;;;;;;;15.37;9.00;;;0.70;99.90;;;;;;5073811;28;20227;-71
2023/12/04 04:39:13;;;;;;;16.97;9.47;;;0.70;99.90;;;;;;5073615;28;20562;-71
2023/12/04 04:41:39;;;;;;;13.93;8.27;;;0.70;99.90;;;;;;5073713;28;20197;-70
2023/12/04 04:44:05;;;;;;;17.50;9.33;;;0.70;99.90;;;;;;5073767;28;20400;-71
2023/12/04 04:46:31;;;;;;;12.27;7.90;;;0.70;99.90;;;;;;5073735;28;20401;-71
2023/12/04 04:48:56;;;;;;;16.23;8.40;;;0.70;99.90;;;;;;5073459;28;20580;-70
2023/12/04 04:51:22;;;;;;;14.33;8.10;;;0.70;99.90;;;;;;5072186;28;20221;-70
2023/12/04 04:53:48;;;;;;;14.70;8.17;;;0.70;99.90;;;;;;5073425;28;20662;-69
2023/12/04 04:56:14;;;;;;;12.80;8.70;;;0.70;99.90;;;;;;5073541;28;20158;-70
2023/12/04 04:58:40;;;;;;;17.17;9.23;;;0.70;99.90;;;;;;5073117;28;20480;-70
2023/12/04 05:01:06;;;;;;;17.70;9.00;;;0.70;99.90;;;;;;5073280;28;20488;-70
2023/12/04 05:03:31;;;;;;;13.93;8.23;;;0.70;99.90;;;;;;5073540;28;20169;-70
2023/12/04 05:05:57;;;;;;;11.03;7.87;;;0.70;99.90;;;;;;5073357;28;20405;-70
2023/12/04 05:08:22;;;;;;;15.23;9.27;;;0.70;99.90;;;;;;5073051;28;20162;-70
2023/12/04 05:10:48;;;;;;;14.40;8.27;;;0.70;99.90;;;;;;5073169;28;20367;-69
2023/12/04 05:13:13;;;;;;;15.67;7.90;;;0.70;99.90;;;;;;5071798;28;20173;-71
2023/12/04 05:15:39;;;;;;;12.37;9.23;;;0.70;99.90;;;;;;5073127;28;20544;-70
2023/12/04 05:18:04;;;;;;;14.20;9.10;;;0.70;99.90;;;;;;5072395;28;20182;-70
2023/12/04 05:20:30;;;;;;;15.37;7.70;;;0.70;99.90;;;;;;5072902;28;20198;-69
2023/12/04 05:22:57;;;;;;;11.00;6.87;;;0.80;99.90;;;;;;5072886;28;20304;-71
2023/12/04 05:25:22;;;;;;;13.07;8.00;;;0.80;99.90;;;;;;5072997;28;20185;-71
2023/12/04 05:27:48;;;;;;;15.20;8.90;;;0.80;99.90;;;;;;5072657;28;20412;-71
2023/12/04 05:30:13;;;;;;;13.57;8.20;;;0.80;99.90;;;;;;5072769;28;20677;-69
2023/12/04 05:32:39;;;;;;;17.67;9.27;;;0.80;99.90;;;;;;5072718;28;20537;-70
2023/12/04 05:35:05;;;;;;;15.07;10.07;;;0.80;99.90;;;;;;5072778;28;20546;-70
2023/12/04 05:37:30;;;;;;;20.20;8.70;;;0.90;99.90;;;;;;5072463;28;20174;-69
2023/12/04 05:39:56;;;;;;;17.00;10.50;;;0.90;99.90;;;;;;5072624;28;20426;-70
2023/12/04 05:42:21;;;;;;;13.43;8.33;;;0.90;99.90;;;;;;5063951;28;20561;-71
2023/12/04 05:44:47;;;;;;;19.50;10.60;;;0.90;99.90;;;;;;5064555;28;20216;-70
2023/12/04 05:47:12;;;;;;;17.27;9.90;;;0.90;99.90;;;;;;5072195;28;20166;-70
2023/12/04 05:49:38;;;;;;;16.40;9.37;;;0.90;99.90;;;;;;5072231;28;20178;-71
2023/12/04 05:52:03;;;;;;;18.70;9.97;;;0.90;99.90;;;;;;5072304;28;20260;-71
2023/12/04 05:54:30;;;;;;;20.40;9.80;;;0.90;99.90;;;;;;5070971;28;20193;-70
2023/12/04 05:56:55;;;;;;;18.80;9.97;;;0.90;99.90;;;;;;5072106;28;20169;-71
2023/12/04 05:59:21;;;;;;;16.30;9.00;;;1.00;99.90;;;;;;5072263;28;20497;-69
2023/12/04 06:01:46;;;;;;;17.23;10.70;;;1.00;99.90;;;;;;5072171;28;20190;-70
2023/12/04 06:04:12;;;;;;;24.00;11.80;;;1.00;99.90;;;;;;5072216;28;20170;-70
2023/12/04 06:06:37;;;;;;;17.33;10.07;;;1.00;99.90;;;;;;5072277;28;20170;-69
2023/12/04 06:09:03;;;;;;;17.20;10.63;;;1.00;99.90;;;;;;5071968;28;20507;-70
2023/12/04 06:11:28;;;;;;;15.67;9.77;;;0.90;99.90;;;;;;5069370;28;20190;-70
2023/12/04 06:13:54;;;;;;;13.00;8.43;;;1.00;99.90;;;;;;5061945;28;20633;-70
2023/12/04 06:16:19;;;;;;;12.43;9.00;;;1.00;99.90;;;;;;5063561;28;20249;-69
2023/12/04 06:18:45;;;;;;;15.50;9.77;;;1.00;99.90;;;;;;5071516;28;20201;-70
2023/12/04 06:21:10;;;;;;;14.50;8.23;;;1.00;99.90;;;;;;5071783;28;20722;-70
2023/12/04 06:23:36;;;;;;;15.40;10.57;;;1.00;99.90;;;;;;5071924;28;20170;-70
2023/12/04 06:26:02;;;;;;;14.80;9.20;;;1.00;99.90;;;;;;5071487;28;20178;-70
2023/12/04 06:28:28;;;;;;;16.57;9.30;;;1.10;99.90;;;;;;5070752;28;20170;-68
2023/12/04 06:30:53;;;;;;;15.47;10.00;;;1.00;99.90;;;;;;5071760;28;20722;-70
2023/12/04 06:33:20;;;;;;;17.40;10.80;;;1.10;99.90;;;;;;5071865;28;20166;-70
2023/12/04 06:35:46;;;;;;;15.50;8.87;;;1.00;99.90;;;;;;5071954;28;20193;-69
2023/12/04 06:38:15;;;;;;;12.90;8.77;;;1.00;99.90;;;;;;5071664;28;20476;-69
2023/12/04 06:40:40;;;;;;;13.77;10.10;;;1.00;99.90;;;;;;5071893;28;20592;-70
2023/12/04 06:43:07;;;;;;;16.80;9.97;;;1.00;99.90;;;;;;5065562;28;20413;-70
2023/12/04 06:45:33;;;;;;;17.40;9.83;;;1.00;99.90;;;;;;5068829;28;20178;-70
2023/12/04 06:47:59;;;;;;;15.87;9.50;;;1.00;99.90;;;;;;5071545;28;20960;-70
2023/12/04 06:50:25;;;;;;;21.13;10.97;;;1.00;99.90;;;;;;5070181;28;20437;-70
2023/12/04 06:52:51;;;;;;;15.50;10.43;;;1.00;99.90;;;;;;5070160;28;20561;-70
2023/12/04 06:55:16;;;;;;;19.97;9.70;;;1.00;99.90;;;;;;5071667;28;20433;-70
2023/12/04 06:57:42;;;;;;;15.10;9.40;;;1.00;99.90;;;;;;5067227;28;20179;-70
2023/12/04 07:00:08;;;;;;;18.77;10.97;;;1.00;99.90;;;;;;5053115;28;20433;-70
2023/12/04 07:02:34;;;;;;;17.30;10.27;;;0.90;99.90;;;;;;5071062;28;20620;-70
2023/12/04 07:04:59;;;;;;;15.93;10.17;;;0.90;99.90;;;;;;5073022;28;20415;-70
2023/12/04 07:07:25;;;;;;;14.50;9.73;;;1.00;99.90;;;;;;5071536;28;20198;-70
2023/12/04 07:09:50;;;;;;;17.27;10.37;;;1.00;99.90;;;;;;5071476;28;20273;-69
2023/12/04 07:12:16;;;;;;;13.67;8.17;;;1.00;99.90;;;;;;5071450;28;20170;-71
2023/12/04 07:14:41;;;;;;;17.47;10.70;;;1.00;99.90;;;;;;5069922;28;20266;-69
2023/12/04 07:17:07;;;;;;;16.13;10.90;;;1.10;99.90;;;;;;5071195;28;20583;-70
2023/12/04 07:19:33;;;;;;;12.80;9.20;;;1.00;99.90;;;;;;5070015;28;20263;-70
2023/12/04 07:21:58;;;;;;;17.40;10.30;;;1.10;99.90;;;;;;5071339;28;20185;-69
2023/12/04 07:24:24;;;;;;;14.87;9.73;;;1.10;99.90;;;;;;5071462;28;20571;-70
2023/12/04 07:26:49;;;;;;;13.73;10.30;;;1.10;99.90;;;;;;5069224;28;20185;-70
2023/12/04 07:29:16;;;;;;;17.03;10.43;;;1.10;99.90;;;;;;5069756;28;20178;-70
2023/12/04 07:31:41;;;;;;;13.63;9.77;;;1.10;99.90;;;;;;5063153;28;20483;-71
2023/12/04 07:34:07;;;;;;;16.73;10.17;;;1.20;99.90;;;;;;5071053;28;20444;-69
2023/12/04 07:36:33;;;;;;;13.30;9.97;;;1.20;99.90;;;;;;5071330;28;20181;-69
2023/12/04 07:38:58;;;;;;;17.20;10.60;;;1.20;99.90;;;;;;5071230;28;20683;-69
2023/12/04 07:41:24;;;;;;;14.40;9.57;;;1.20;99.90;;;;;;5073430;28;20596;-70
2023/12/04 07:43:49;;;;;;;14.40;9.93;;;1.20;99.90;;;;;;5075010;28;20163;-70
2023/12/04 07:46:15;;;;;;;17.47;11.60;;;1.20;99.90;;;;;;5075088;28;20508;-70
2023/12/04 07:48:42;;;;;;;17.60;10.87;;;1.20;99.90;;;;;;5074765;28;20641;-69
2023/12/04 07:51:09;;;;;;;18.03;10.80;;;1.20;99.90;;;;;;5073240;28;20440;-70
2023/12/04 07:53:35;;;;;;;17.53;10.20;;;1.20;99.90;;;;;;5074455;28;20500;-69
2023/12/04 07:56:03;;;;;;;18.47;9.70;;;1.20;99.90;;;;;;5074611;28;20487;-70
2023/12/04 07:58:30;;;;;;;21.90;10.97;;;1.30;99.90;;;;;;5073054;28;20297;-69
2023/12/04 08:00:56;;;;;;;18.53;10.17;;;1.30;99.90;;;;;;5074286;28;20511;-70
2023/12/04 08:03:21;;;;;;;19.63;10.67;;;1.30;99.90;;;;;;5074552;28;20959;-70
2023/12/04 08:05:47;;;;;;;15.67;9.60;;;1.30;99.90;;;;;;5074490;28;20167;-70
2023/12/04 08:08:12;;;;;;;14.80;10.40;;;1.30;99.90;;;;;;5074247;28;20193;-70
2023/12/04 08:10:38;;;;;;;17.83;9.80;;;1.30;99.90;;;;;;5074651;28;20244;-71
2023/12/04 08:13:03;;;;;;;24.70;10.67;;;1.30;99.90;;;;;;5074351;28;20170;-70
2023/12/04 08:15:29;;;;;;;14.77;9.63;;;1.40;99.90;;;;;;5074333;28;20196;-70
2023/12/04 08:17:55;;;;;;;19.70;10.17;;;1.30;99.90;;;;;;5074004;28;20201;-70
2023/12/04 08:20:22;;;;;;;14.70;10.80;;;1.30;99.90;;;;;;5074213;28;20219;-70
2023/12/04 08:22:47;;;;;;;13.70;9.87;;;1.30;99.90;;;;;;5074112;28;20461;-70
2023/12/04 08:25:13;;;;;;;13.23;9.60;;;1.40;99.90;;;;;;5074041;28;20805;-70
2023/12/04 08:27:39;;;;;;;16.90;9.37;;;1.30;99.90;;;;;;5072723;28;20257;-70
2023/12/04 08:30:05;;;;;;;17.00;9.63;;;1.40;99.90;;;;;;5073867;28;20183;-70
2023/12/04 08:32:31;;;;;;;13.53;8.80;;;1.40;99.90;;;;;;5073872;28;20531;-70
2023/12/04 08:34:56;;;;;;;17.80;10.80;;;1.40;99.90;;;;;;5073918;28;20401;-70
2023/12/04 08:37:22;;;;;;;23.23;11.27;;;1.40;99.90;;;;;;5073725;28;20199;-69
2023/12/04 08:39:47;;;;;;;16.60;10.83;;;1.40;99.90;;;;;;5073658;28;20200;-69
2023/12/04 08:42:13;;;;;;;21.77;11.13;;;1.50;99.90;;;;;;5072387;28;20169;-69
2023/12/04 08:44:40;;;;;;;15.40;10.40;;;1.50;99.90;;;;;;5073639;28;20176;-70
2023/12/04 08:47:05;;;;;;;17.83;10.53;;;1.50;99.90;;;;;;5073516;28;20197;-71
2023/12/04 08:49:32;;;;;;;15.40;9.77;;;1.50;99.90;;;;;;5073576;28;20436;-70
2023/12/04 08:51:57;;;;;;;15.40;10.07;;;1.60;99.90;;;;;;5072529;28;20177;-70
2023/12/04 08:54:24;;;;;;;13.60;8.97;;;1.60;99.90;;;;;;5073384;28;20821;-70
2023/12/04 08:56:49;;;;;;;11.83;7.73;;;1.60;99.90;;;;;;5073485;28;20167;-70
2023/12/04 08:59:16;;;;;;;16.57;10.00;;;1.60;99.90;;;;;;5071823;28;20521;-70
2023/12/04 09:01:42;;;;;;;14.67;9.60;;;1.60;99.90;;;;;;5073250;28;20534;-70
2023/12/04 09:04:09;;;;;;;21.93;11.70;;;1.70;99.90;;;;;;5073298;28;20840;-70
2023/12/04 09:06:34;;;;;;;15.10;9.60;;;1.60;99.90;;;;;;5073297;28;20408;-70
2023/12/04 09:09:00;;;;;;;18.70;11.30;;;1.70;99.90;;;;;;5072990;28;20401;-70
2023/12/04 09:11:25;;;;;;;14.50;9.10;;;1.60;99.90;;;;;;5073149;28;20182;-70
2023/12/04 09:13:51;;;;;;;17.17;10.40;;;1.60;99.90;;;;;;5071728;28;20220;-70
2023/12/04 09:16:16;;;;;;;13.77;9.17;;;1.60;99.90;;;;;;5073125;28;20192;-70
2023/12/04 09:18:42;;;;;;;14.17;8.87;;;1.60;99.90;;;;;;5072767;28;20193;-70
2023/12/04 09:21:08;;;;;;;13.10;8.77;;;1.60;99.90;;;;;;5072916;28;20522;-70
2023/12/04 09:23:34;;;;;;;10.20;7.03;;;1.70;99.90;;;;;;5072931;28;20239;-69
2023/12/04 09:26:00;;;;;;;14.70;9.10;;;1.70;99.90;;;;;;5072933;28;20253;-71
2023/12/04 09:28:25;;;;;;;11.73;7.73;;;1.70;99.90;;;;;;5072728;28;20923;-70
2023/12/04 09:30:51;;;;;;;15.10;9.87;;;1.70;99.90;;;;;;5073002;28;20190;-70
2023/12/04 09:33:16;;;;;;;14.33;8.97;;;1.80;99.90;;;;;;5072687;28;20163;-69
2023/12/04 09:35:42;;;;;;;15.30;10.20;;;1.80;99.90;;;;;;5072781;28;20170;-70
2023/12/04 09:38:07;;;;;;;14.73;9.50;;;1.80;99.90;;;;;;5072485;28;20189;-70
2023/12/04 09:40:33;;;;;;;14.70;9.20;;;1.80;99.90;;;;;;5072643;28;20653;-70
2023/12/04 09:42:58;;;;;;;13.37;9.83;;;1.80;99.90;;;;;;5072554;28;20170;-70
2023/12/04 09:45:25;;;;;;;13.87;8.50;;;1.80;99.90;;;;;;5072541;28;20607;-70
2023/12/04 09:47:50;;;;;;;18.30;9.37;;;1.90;99.90;;;;;;5072398;28;20555;-70
2023/12/04 09:50:20;;;;;;;17.30;8.47;;;1.90;99.90;;;;;;5072411;28;20415;-70
2023/12/04 09:52:51;;;;;;;9.40;8.17;;;2.00;99.90;;;;;;5072310;28;20158;-69
2023/12/04 09:55:17;;;;;;;21.00;9.77;;;2.00;99.90;;;;;;5072417;28;20463;-70
2023/12/04 09:57:46;;;;;;;13.43;9.10;;;2.10;99.90;;;;;;5070866;28;20854;-70
2023/12/04 10:00:13;;;;;;;16.17;7.93;;;2.10;99.90;;;;;;5072344;28;20819;-70
2023/12/04 10:02:42;;;;;;;13.93;8.77;;;2.10;99.90;;;;;;5072068;28;20416;-69
2023/12/04 10:05:08;;;;;;;15.80;9.40;;;2.20;99.90;;;;;;5072283;28;20818;-70
2023/12/04 10:07:36;;;;;;;13.47;9.40;;;2.20;99.90;;;;;;5072088;28;20404;-70
2023/12/04 10:10:04;;;;;;;13.50;9.70;;;2.30;99.90;;;;;;5072132;28;20428;-71
2023/12/04 10:12:30;;;;;;;11.70;7.90;;;2.40;99.90;;;;;;5072099;28;20424;-70
2023/12/04 10:15:10;;;;;;;14.40;9.60;;;2.40;99.90;;;;;;5072201;28;20770;-70
2023/12/04 10:17:40;;;;;;;10.17;7.37;;;2.50;99.90;;;;;;5071969;28;20162;-70
2023/12/04 10:20:11;;;;;;;13.57;8.13;;;2.50;99.90;;;;;;5072183;28;20428;-70
2023/12/04 10:22:51;;;;;;;10.00;7.00;;;2.40;99.90;;;;;;5071900;28;20377;-71
2023/12/04 10:25:18;;;;;;;13.00;7.80;;;2.50;99.90;;;;;;5072078;28;20399;-70
2023/12/04 10:27:44;;;;;;;16.03;8.80;;;2.50;99.90;;;;;;5071983;28;21017;-70
2023/12/04 10:30:21;;;;;;;14.63;7.87;;;2.50;99.90;;;;;;5071838;28;20807;-71
2023/12/04 10:32:47;;;;;;;11.17;7.10;;;2.50;99.90;;;;;;5071932;28;20388;-70
2023/12/04 10:35:13;;;;;;;16.60;8.17;;;2.50;99.90;;;;;;5071802;28;20898;-70
2023/12/04 10:37:39;;;;;;;18.57;9.43;;;2.50;99.90;;;;;;5071639;28;20165;-70
2023/12/04 10:40:08;;;;;;;12.27;7.47;;;2.50;99.90;;;;;;5071822;28;20807;-70
2023/12/04 10:42:34;;;;;;;12.93;7.50;;;2.50;99.90;;;;;;5071779;28;20447;-70
2023/12/04 10:45:00;;;;;;;14.70;8.37;;;2.50;99.90;;;;;;5071810;28;20397;-69
2023/12/04 10:47:28;;;;;;;11.93;7.07;;;2.50;99.90;;;;;;5071535;28;20649;-69
2023/12/04 10:49:55;;;;;;;11.70;7.50;;;2.60;99.90;;;;;;5071691;28;20482;-70
2023/12/04 10:52:21;;;;;;;15.87;8.10;;;2.50;99.90;;;;;;5071539;28;20440;-70
2023/12/04 10:54:47;;;;;;;17.03;8.23;;;2.50;99.90;;;;;;5070294;28;20485;-70
2023/12/04 10:57:26;;;;;;;15.67;8.83;;;2.60;99.90;;;;;;5071397;28;20400;-70
2023/12/04 11:00:01;;;;;;;9.70;6.70;;;2.60;99.90;;;;;;5071591;28;20452;-71
2023/12/04 11:02:32;;;;;;;12.60;7.17;;;2.60;99.90;;;;;;5071576;28;20463;-70
2023/12/04 11:05:21;;;;;;;13.50;7.13;;;2.60;99.90;;;;;;5071588;28;20397;-70
2023/12/04 11:07:57;;;;;;;13.87;8.50;;;2.60;99.90;;;;;;5071425;28;20393;-70
2023/12/04 11:10:26;;;;;;;12.37;6.80;;;2.60;99.90;;;;;;5071365;28;20847;-70
2023/12/04 11:13:03;;;;;;;11.70;7.60;;;2.50;99.90;;;;;;5071402;28;20412;-70
2023/12/04 11:15:31;;;;;;;12.63;8.97;;;2.60;99.90;;;;;;5073694;28;20404;-70
2023/12/04 11:18:00;;;;;;;10.80;7.83;;;2.50;99.90;;;;;;5075067;28;20404;-70
2023/12/04 11:20:30;;;;;;;11.93;7.87;;;2.50;99.90;;;;;;5075212;28;20425;-71
2023/12/04 11:22:57;;;;;;;17.67;8.77;;;2.40;99.90;;;;;;5075150;28;20945;-72
2023/12/04 11:25:24;;;;;;;11.03;7.80;;;2.40;99.90;;;;;;5075192;28;20397;-70
2023/12/04 11:27:51;;;;;;;14.20;8.90;;;2.30;99.90;;;;;;5074972;28;20407;-71
2023/12/04 11:30:18;;;;;;;14.83;8.70;;;2.30;99.90;;;;;;5075017;28;20416;-70
2023/12/04 11:32:48;;;;;;;11.83;7.97;;;2.20;99.90;;;;;;5074977;28;20397;-70
2023/12/04 11:35:18;;;;;;;12.03;8.73;;;2.20;99.90;;;;;;5075470;28;20407;-71
2023/12/04 11:37:44;;;;;;;14.30;7.93;;;2.20;99.90;;;;;;5074606;28;20852;-71
2023/12/04 11:40:15;;;;;;;16.40;8.03;;;2.20;99.90;;;;;;5074901;28;20426;-71
2023/12/04 11:42:41;;;;;;;10.50;6.20;;;2.20;99.90;;;;;;5074737;28;20400;-71
2023/12/04 11:45:08;;;;;;;12.57;7.53;;;2.10;99.90;;;;;;5074811;28;20823;-71
2023/12/04 11:47:55;;;;;;;14.70;8.47;;;2.10;99.90;;;;;;5074553;28;20416;-71
2023/12/04 11:50:22;;;;;;;10.93;7.47;;;2.10;99.90;;;;;;5074608;28;20431;-72
2023/12/04 11:52:48;;;;;;;11.47;7.00;;;2.00;99.90;;;;;;5074630;28;20491;-71
2023/12/04 11:55:23;;;;;;;11.03;7.40;;;2.00;99.90;;;;;;5074567;28;20420;-71
2023/12/04 11:57:51;;;;;;;13.97;8.97;;;2.10;99.90;;;;;;5074403;28;20392;-71
2023/12/04 12:00:17;;;;;;;15.50;7.13;;;2.00;99.90;;;;;;5074546;28;20424;-72
2023/12/04 12:02:49;;;;;;;14.63;7.67;;;2.00;99.90;;;;;;5074394;28;20405;-71
2023/12/04 12:05:15;;;;;;;12.77;7.77;;;2.00;99.90;;;;;;5074467;28;20450;-71
2023/12/04 12:07:40;;;;;;;12.90;9.17;;;2.00;99.90;;;;;;5074274;28;20397;-71
2023/12/04 12:10:06;;;;;;;12.73;8.60;;;2.10;99.90;;;;;;5074322;28;20417;-71
2023/12/04 12:12:32;;;;;;;14.77;8.27;;;2.10;99.90;;;;;;5074193;28;20165;-71
2023/12/04 12:14:58;;;;;;;10.60;8.37;;;2.20;99.90;;;;;;5074244;28;20162;-71
2023/12/04 12:17:25;;;;;;;13.60;8.33;;;2.20;99.90;;;;;;5074102;28;20427;-70
2023/12/04 12:19:50;;;;;;;12.40;8.07;;;2.20;99.90;;;;;;5074083;28;20456;-70
2023/12/04 12:22:16;;;;;;;16.50;9.13;;;2.30;99.90;;;;;;5074116;28;20411;-72
2023/12/04 12:24:42;;;;;;;14.13;7.10;;;2.20;99.90;;;;;;5074228;28;20681;-70
2023/12/04 12:27:07;;;;;;;12.87;8.30;;;2.30;99.90;;;;;;5073830;28;20535;-71
2023/12/04 12:29:33;;;;;;;14.17;9.53;;;2.20;99.90;;;;;;5073900;28;20170;-71
2023/12/04 12:31:58;;;;;;;16.07;10.00;;;2.20;99.90;;;;;;5073923;28;20170;-72
2023/12/04 12:34:24;;;;;;;11.80;8.50;;;2.20;99.90;;;;;;5073852;28;20170;-72
2023/12/04 12:36:50;;;;;;;15.17;9.77;;;2.30;99.90;;;;;;5073946;28;20174;-71
2023/12/04 12:39:15;;;;;;;11.43;7.50;;;2.30;99.90;;;;;;5072300;28;20202;-72
2023/12/04 12:41:49;;;;;;;15.57;8.97;;;2.40;99.90;;;;;;5073756;28;20244;-71